Time;durP1;ratioP1;P1;durP2;ratioP2;P2;SDS_P1;SDS_P2;PMS_P1;PMS_P2;Temp;Humidity;BMP_temperature;BMP_pressure;BME280_temperature;BME280_humidity;BME280_pressure;Samples;Min_cycle;Max_cycle;Signal;HPM_P1;HPM_P2
2021/08/22 00:01:42;;;;;;;3.47;3.15;;;25.10;47.00;;;;;;5031851;28;20236;-60
2021/08/22 00:04:09;;;;;;;3.70;3.30;;;25.10;47.00;;;;;;5031339;28;20316;-60
2021/08/22 00:06:35;;;;;;;3.60;3.28;;;25.10;47.00;;;;;;5032579;28;20309;-59
2021/08/22 00:09:01;;;;;;;4.10;3.40;;;25.10;47.00;;;;;;5032673;28;20294;-60
2021/08/22 00:11:28;;;;;;;3.55;3.25;;;25.10;47.00;;;;;;5030831;28;20203;-60
2021/08/22 00:13:54;;;;;;;3.97;3.60;;;25.10;47.00;;;;;;5033028;28;20202;-60
2021/08/22 00:16:21;;;;;;;3.70;3.40;;;25.10;47.10;;;;;;5031220;28;20225;-60
2021/08/22 00:18:47;;;;;;;3.58;3.28;;;25.10;47.00;;;;;;5034070;28;20293;-60
2021/08/22 00:21:14;;;;;;;3.80;3.50;;;25.10;47.00;;;;;;5031154;28;20199;-59
2021/08/22 00:23:40;;;;;;;3.28;2.97;;;25.10;47.10;;;;;;5033648;28;20226;-59
2021/08/22 00:26:07;;;;;;;3.78;3.50;;;25.10;47.10;;;;;;5031763;28;20584;-59
2021/08/22 00:28:33;;;;;;;3.50;3.20;;;25.10;47.10;;;;;;5031384;28;20564;-59
2021/08/22 00:31:00;;;;;;;3.72;3.42;;;25.10;47.10;;;;;;5031957;28;20581;-59
2021/08/22 00:33:27;;;;;;;3.90;3.28;;;25.10;47.10;;;;;;5033143;28;20309;-59
2021/08/22 00:35:53;;;;;;;3.25;2.97;;;25.10;47.10;;;;;;5033394;28;20261;-59
2021/08/22 00:38:20;;;;;;;3.10;2.83;;;25.10;47.10;;;;;;5033296;28;20271;-59
2021/08/22 00:40:46;;;;;;;3.28;2.97;;;25.10;47.10;;;;;;5030728;28;20209;-59
2021/08/22 00:43:13;;;;;;;3.10;2.90;;;25.10;47.10;;;;;;5033007;28;20234;-59
2021/08/22 00:45:39;;;;;;;3.53;3.22;;;25.10;47.20;;;;;;5030487;28;20226;-59
2021/08/22 00:48:05;;;;;;;3.50;3.20;;;25.10;47.10;;;;;;5033464;28;20285;-59
2021/08/22 00:50:32;;;;;;;3.50;3.20;;;25.10;47.20;;;;;;5030630;28;20205;-59
2021/08/22 00:52:59;;;;;;;3.63;3.33;;;25.10;47.10;;;;;;5033065;28;20206;-59
2021/08/22 00:55:25;;;;;;;3.67;3.33;;;25.10;47.10;;;;;;5030845;28;20223;-59
2021/08/22 00:57:52;;;;;;;3.70;3.40;;;25.10;47.10;;;;;;5030407;28;20199;-60
2021/08/22 01:00:18;;;;;;;3.50;3.20;;;25.10;47.20;;;;;;5031531;28;20198;-60
2021/08/22 01:02:45;;;;;;;3.22;3.03;;;25.10;47.20;;;;;;5032568;28;20300;-59
2021/08/22 01:05:11;;;;;;;3.70;3.40;;;25.10;47.20;;;;;;5031016;28;20221;-59
2021/08/22 01:07:38;;;;;;;3.20;2.90;;;25.10;47.20;;;;;;5031254;28;20214;-60
2021/08/22 01:10:04;;;;;;;3.58;3.28;;;25.10;47.20;;;;;;5032264;28;20732;-60
2021/08/22 01:12:30;;;;;;;3.15;2.95;;;25.10;47.20;;;;;;5031603;28;20202;-60
2021/08/22 01:14:57;;;;;;;3.45;3.15;;;25.10;47.20;;;;;;5030782;28;20229;-60
2021/08/22 01:17:23;;;;;;;3.33;3.03;;;25.10;47.20;;;;;;5030234;28;20198;-60
2021/08/22 01:19:50;;;;;;;3.70;3.38;;;25.10;47.30;;;;;;5030926;28;20210;-60
2021/08/22 01:22:16;;;;;;;3.80;3.22;;;25.10;47.30;;;;;;5031745;28;20199;-59
2021/08/22 01:24:43;;;;;;;3.65;3.22;;;25.10;47.30;;;;;;5031954;28;20234;-59
2021/08/22 01:27:10;;;;;;;3.30;3.08;;;25.10;47.30;;;;;;5030899;28;20629;-60
2021/08/22 01:29:36;;;;;;;3.50;3.20;;;25.10;47.30;;;;;;5030064;28;20583;-59
2021/08/22 01:32:03;;;;;;;3.72;3.40;;;25.10;47.30;;;;;;5029902;28;20651;-59
2021/08/22 01:34:29;;;;;;;3.67;3.33;;;25.10;47.30;;;;;;5031281;28;20622;-59
2021/08/22 01:36:55;;;;;;;3.47;3.13;;;25.10;47.30;;;;;;5031792;28;20299;-60
2021/08/22 01:39:22;;;;;;;3.85;3.55;;;25.10;47.30;;;;;;5029670;28;20292;-59
2021/08/22 01:41:48;;;;;;;3.53;3.22;;;25.10;47.30;;;;;;5030921;28;20286;-59
2021/08/22 01:44:15;;;;;;;3.67;3.38;;;25.10;47.20;;;;;;5030967;28;20236;-60
2021/08/22 01:46:42;;;;;;;3.67;3.35;;;25.10;47.20;;;;;;5032086;28;20211;-60
2021/08/22 01:49:08;;;;;;;3.47;3.20;;;25.10;47.20;;;;;;5030302;28;20218;-60
2021/08/22 01:51:35;;;;;;;4.55;3.40;;;25.10;47.30;;;;;;5029862;28;20205;-59
2021/08/22 01:54:01;;;;;;;3.45;3.25;;;25.10;47.30;;;;;;5031209;28;20202;-59
2021/08/22 01:56:28;;;;;;;3.30;3.00;;;25.10;47.30;;;;;;5032216;28;20245;-59
2021/08/22 01:58:54;;;;;;;3.42;3.13;;;25.10;47.30;;;;;;5028861;28;20663;-60
2021/08/22 02:01:21;;;;;;;3.10;2.90;;;25.10;47.30;;;;;;5027100;28;20582;-59
2021/08/22 02:03:47;;;;;;;3.63;3.33;;;25.10;47.30;;;;;;5029917;28;20677;-59
2021/08/22 02:06:15;;;;;;;3.38;3.08;;;25.10;47.30;;;;;;5031393;28;20218;-60
2021/08/22 02:08:42;;;;;;;3.25;2.97;;;25.10;47.30;;;;;;5031119;28;20286;-60
2021/08/22 02:11:08;;;;;;;3.33;3.03;;;25.10;47.30;;;;;;5030647;28;20212;-60
2021/08/22 02:13:35;;;;;;;3.30;3.00;;;25.10;47.30;;;;;;5030272;28;20207;-60
2021/08/22 02:16:01;;;;;;;3.50;3.10;;;25.10;47.30;;;;;;5031063;28;20214;-60
2021/08/22 02:18:28;;;;;;;3.20;2.90;;;25.10;47.30;;;;;;5030261;28;20209;-59
2021/08/22 02:20:54;;;;;;;2.90;2.70;;;25.00;47.30;;;;;;5030972;28;20241;-59
2021/08/22 02:23:20;;;;;;;3.20;3.00;;;25.10;47.30;;;;;;5030056;28;20248;-59
2021/08/22 02:25:47;;;;;;;2.85;2.65;;;25.10;47.30;;;;;;5028274;28;20732;-60
2021/08/22 02:28:13;;;;;;;3.47;3.17;;;25.10;47.40;;;;;;5028803;28;20671;-59
2021/08/22 02:30:40;;;;;;;3.28;2.97;;;25.10;47.40;;;;;;5030133;28;20569;-59
2021/08/22 02:33:06;;;;;;;3.05;2.75;;;25.10;47.40;;;;;;5031039;28;20202;-59
2021/08/22 02:35:33;;;;;;;3.80;3.33;;;25.10;47.40;;;;;;5029472;28;20223;-60
2021/08/22 02:37:59;;;;;;;3.70;3.03;;;25.10;47.40;;;;;;5029829;28;20198;-60
2021/08/22 02:40:26;;;;;;;2.83;2.50;;;25.10;47.40;;;;;;5029649;28;20221;-61
2021/08/22 02:42:52;;;;;;;3.58;3.00;;;25.10;47.30;;;;;;5031143;28;20285;-59
2021/08/22 02:45:18;;;;;;;3.10;2.72;;;25.10;47.60;;;;;;5030687;28;20214;-59
2021/08/22 02:47:45;;;;;;;3.25;2.95;;;25.10;47.50;;;;;;5028983;28;20216;-59
2021/08/22 02:50:11;;;;;;;3.40;3.10;;;25.10;47.60;;;;;;5025246;28;20198;-60
2021/08/22 02:52:38;;;;;;;2.97;2.67;;;25.10;47.60;;;;;;5030615;28;20199;-59
2021/08/22 02:55:04;;;;;;;3.30;3.00;;;25.10;47.70;;;;;;5030636;28;20273;-59
2021/08/22 02:57:31;;;;;;;3.50;3.25;;;25.10;47.60;;;;;;5029022;28;20202;-59
2021/08/22 02:59:57;;;;;;;3.00;2.80;;;25.10;47.60;;;;;;5029977;28;20209;-59
2021/08/22 03:02:23;;;;;;;3.42;2.92;;;25.10;47.60;;;;;;5028798;28;20213;-59
2021/08/22 03:04:50;;;;;;;3.70;3.05;;;25.10;47.70;;;;;;5030515;28;20249;-59
2021/08/22 03:07:16;;;;;;;3.78;2.85;;;25.10;47.70;;;;;;5028979;28;20198;-59
2021/08/22 03:09:43;;;;;;;3.05;2.80;;;25.10;47.70;;;;;;5029853;28;20683;-59
2021/08/22 03:12:09;;;;;;;2.88;2.67;;;25.10;47.70;;;;;;5029718;28;20659;-59
2021/08/22 03:14:36;;;;;;;4.95;2.97;;;25.10;47.70;;;;;;5030339;28;20716;-59
2021/08/22 03:17:02;;;;;;;2.78;2.58;;;25.10;47.60;;;;;;5029783;28;20285;-60
2021/08/22 03:19:29;;;;;;;2.90;2.70;;;25.10;47.70;;;;;;5029360;28;20202;-59
2021/08/22 03:21:55;;;;;;;2.85;2.65;;;25.10;47.70;;;;;;5029359;28;20202;-59
2021/08/22 03:24:21;;;;;;;2.90;2.70;;;25.10;47.70;;;;;;5030580;28;20240;-59
2021/08/22 03:26:48;;;;;;;4.35;2.83;;;25.00;47.60;;;;;;5028536;28;20212;-59
2021/08/22 03:29:14;;;;;;;2.88;2.65;;;25.10;47.70;;;;;;5028522;28;20251;-60
2021/08/22 03:31:41;;;;;;;3.10;2.85;;;25.10;47.70;;;;;;5028721;28;20206;-59
2021/08/22 03:34:07;;;;;;;4.35;3.28;;;25.10;47.60;;;;;;5030619;28;20221;-59
2021/08/22 03:36:35;;;;;;;3.25;2.90;;;25.10;47.70;;;;;;5029300;28;20504;-59
2021/08/22 03:39:02;;;;;;;3.30;3.00;;;25.10;47.60;;;;;;5030269;28;20195;-59
2021/08/22 03:41:28;;;;;;;2.92;2.60;;;25.10;47.70;;;;;;5027734;28;20208;-59
2021/08/22 03:43:54;;;;;;;3.22;2.92;;;25.10;47.60;;;;;;5030054;28;20235;-59
2021/08/22 03:46:21;;;;;;;3.10;2.80;;;25.10;47.60;;;;;;5029138;28;20202;-59
2021/08/22 03:48:47;;;;;;;2.83;2.63;;;25.10;47.60;;;;;;5030502;28;20296;-59
2021/08/22 03:51:14;;;;;;;3.00;2.78;;;25.00;47.60;;;;;;5028599;28;20206;-60
2021/08/22 03:53:40;;;;;;;2.90;2.60;;;25.00;47.60;;;;;;5010641;28;20294;-59
2021/08/22 03:56:07;;;;;;;3.65;3.20;;;25.10;47.60;;;;;;5028640;28;20206;-59
2021/08/22 03:58:33;;;;;;;3.17;2.88;;;25.00;47.60;;;;;;5030189;28;20800;-59
2021/08/22 04:01:00;;;;;;;2.90;2.70;;;25.00;47.60;;;;;;5024595;28;20203;-59
2021/08/22 04:03:27;;;;;;;2.97;2.50;;;25.00;47.60;;;;;;5028742;28;20223;-59
2021/08/22 04:05:53;;;;;;;3.50;3.20;;;25.10;47.60;;;;;;5029337;28;20365;-59
2021/08/22 04:08:24;;;;;;;3.22;2.70;;;25.00;47.60;;;;;;5030345;28;20212;-59
2021/08/22 04:10:51;;;;;;;2.92;2.63;;;25.00;47.60;;;;;;5028701;28;20220;-59
2021/08/22 04:13:19;;;;;;;2.60;2.40;;;25.00;47.60;;;;;;5028205;28;20224;-59
2021/08/22 04:15:45;;;;;;;4.30;2.80;;;25.10;47.60;;;;;;5028767;28;20695;-59
2021/08/22 04:18:12;;;;;;;2.55;2.35;;;25.00;47.60;;;;;;5030018;28;20233;-59
2021/08/22 04:20:38;;;;;;;2.72;2.53;;;25.00;47.30;;;;;;5028675;28;20305;-59
2021/08/22 04:23:05;;;;;;;2.85;2.65;;;25.00;47.60;;;;;;5030115;28;20207;-59
2021/08/22 04:25:31;;;;;;;2.63;2.42;;;25.00;47.70;;;;;;5028568;28;20234;-60
2021/08/22 04:27:57;;;;;;;2.80;2.60;;;25.00;47.70;;;;;;5029134;28;20202;-60
2021/08/22 04:30:24;;;;;;;3.58;2.75;;;25.00;47.70;;;;;;5027315;28;20203;-59
2021/08/22 04:32:51;;;;;;;2.63;2.42;;;25.00;47.70;;;;;;5028323;28;20221;-59
2021/08/22 04:35:17;;;;;;;3.20;2.90;;;25.00;47.70;;;;;;5027426;28;20309;-59
2021/08/22 04:37:44;;;;;;;3.10;2.80;;;25.00;47.70;;;;;;5029730;28;20201;-59
2021/08/22 04:40:10;;;;;;;2.80;2.50;;;25.00;47.80;;;;;;5029346;28;20206;-59
2021/08/22 04:42:36;;;;;;;3.03;2.75;;;25.00;47.80;;;;;;5033459;28;20206;-59
2021/08/22 04:45:03;;;;;;;3.42;2.65;;;25.00;47.70;;;;;;5031942;28;20248;-60
2021/08/22 04:47:29;;;;;;;3.15;2.85;;;25.00;47.70;;;;;;5033464;28;20668;-59
2021/08/22 04:49:56;;;;;;;2.53;2.35;;;25.00;47.80;;;;;;5031439;28;20653;-60
2021/08/22 04:52:22;;;;;;;3.15;2.70;;;25.00;47.80;;;;;;5032403;28;20572;-59
2021/08/22 04:54:49;;;;;;;2.50;2.30;;;25.10;47.80;;;;;;5030658;28;20249;-60
2021/08/22 04:57:15;;;;;;;3.25;2.67;;;25.00;47.80;;;;;;5032811;28;20539;-59
2021/08/22 04:59:42;;;;;;;3.80;2.80;;;25.10;47.90;;;;;;5031789;28;20611;-59
2021/08/22 05:02:08;;;;;;;3.10;2.80;;;25.00;47.90;;;;;;5032348;28;20538;-59
2021/08/22 05:04:35;;;;;;;2.92;2.72;;;25.00;47.80;;;;;;5031818;28;20237;-60
2021/08/22 05:07:02;;;;;;;3.00;2.60;;;25.00;47.80;;;;;;5032278;28;20692;-59
2021/08/22 05:09:30;;;;;;;3.13;2.83;;;25.00;47.80;;;;;;5031692;28;20953;-59
2021/08/22 05:11:58;;;;;;;2.63;2.42;;;25.00;47.80;;;;;;5033141;28;20201;-60
2021/08/22 05:14:24;;;;;;;3.10;2.80;;;25.00;47.90;;;;;;5031469;28;20234;-60
2021/08/22 05:16:51;;;;;;;2.40;2.20;;;25.00;47.90;;;;;;5032529;28;20213;-59
2021/08/22 05:19:17;;;;;;;3.17;2.67;;;25.00;47.80;;;;;;5031496;28;20577;-59
2021/08/22 05:21:44;;;;;;;2.90;2.38;;;25.10;47.90;;;;;;5032378;28;20619;-59
2021/08/22 05:24:10;;;;;;;2.50;2.30;;;25.00;47.90;;;;;;5031388;28;20573;-60
2021/08/22 05:26:37;;;;;;;2.92;2.70;;;25.00;47.80;;;;;;5032410;28;20202;-59
2021/08/22 05:29:03;;;;;;;2.70;2.50;;;25.00;47.90;;;;;;5031312;28;20228;-59
2021/08/22 05:31:29;;;;;;;3.03;2.72;;;25.00;47.90;;;;;;5031838;28;20213;-59
2021/08/22 05:33:56;;;;;;;3.13;2.83;;;25.10;48.00;;;;;;5029990;28;20298;-59
2021/08/22 05:36:22;;;;;;;3.00;2.70;;;25.00;47.90;;;;;;5030786;28;20195;-60
2021/08/22 05:38:49;;;;;;;3.35;2.80;;;25.00;47.90;;;;;;5031357;28;20292;-59
2021/08/22 05:41:15;;;;;;;2.95;2.53;;;25.00;47.90;;;;;;5032039;28;20194;-60
2021/08/22 05:43:42;;;;;;;2.78;2.40;;;25.00;47.90;;;;;;5030780;28;20230;-59
2021/08/22 05:46:09;;;;;;;3.22;2.40;;;25.00;47.90;;;;;;5031566;28;20205;-59
2021/08/22 05:48:36;;;;;;;2.50;2.30;;;25.00;47.90;;;;;;5031724;28;20571;-59
2021/08/22 05:51:02;;;;;;;3.00;2.80;;;25.00;47.90;;;;;;5031151;28;20685;-60
2021/08/22 05:53:29;;;;;;;2.83;2.63;;;25.00;47.90;;;;;;5030467;28;20656;-60
2021/08/22 05:55:55;;;;;;;2.88;2.35;;;25.00;47.90;;;;;;5025648;28;20667;-60
2021/08/22 05:58:22;;;;;;;2.95;2.75;;;25.00;47.90;;;;;;5030051;28;20327;-59
2021/08/22 06:00:48;;;;;;;3.05;2.55;;;25.00;47.90;;;;;;5030074;28;20195;-60
2021/08/22 06:03:15;;;;;;;2.88;2.67;;;25.00;48.00;;;;;;5027930;28;20199;-59
2021/08/22 06:05:41;;;;;;;3.00;2.67;;;25.00;48.00;;;;;;5031966;28;20226;-60
2021/08/22 06:08:08;;;;;;;2.80;2.60;;;25.00;47.90;;;;;;5030786;28;20380;-59
2021/08/22 06:10:34;;;;;;;2.70;2.50;;;25.00;48.10;;;;;;5031654;28;20208;-59
2021/08/22 06:13:00;;;;;;;2.55;2.33;;;25.00;48.20;;;;;;5030952;28;20199;-59
2021/08/22 06:15:27;;;;;;;3.28;2.33;;;25.00;48.30;;;;;;5031947;28;20259;-59
2021/08/22 06:17:53;;;;;;;3.78;2.63;;;25.00;48.20;;;;;;5030374;28;20198;-59
2021/08/22 06:20:20;;;;;;;2.65;2.33;;;25.00;48.20;;;;;;5031235;28;20409;-59
2021/08/22 06:22:46;;;;;;;2.75;2.55;;;25.00;48.30;;;;;;5030762;28;20217;-60
2021/08/22 06:25:13;;;;;;;2.70;2.50;;;25.00;48.20;;;;;;5030842;28;20226;-59
2021/08/22 06:27:39;;;;;;;2.88;2.67;;;25.00;48.10;;;;;;5030630;28;20204;-59
2021/08/22 06:30:06;;;;;;;2.75;2.40;;;25.00;48.10;;;;;;5031199;28;20198;-59
2021/08/22 06:32:32;;;;;;;3.17;2.35;;;25.00;48.00;;;;;;5029843;28;20203;-59
2021/08/22 06:34:58;;;;;;;2.70;2.50;;;25.00;48.00;;;;;;5028001;28;20226;-59
2021/08/22 06:37:25;;;;;;;2.78;2.50;;;25.00;48.10;;;;;;5031311;28;20206;-59
2021/08/22 06:39:51;;;;;;;2.80;2.60;;;25.00;48.10;;;;;;5029896;28;20213;-59
2021/08/22 06:42:18;;;;;;;2.97;2.78;;;25.00;48.10;;;;;;5031092;28;20281;-59
2021/08/22 06:44:44;;;;;;;2.80;2.40;;;25.00;48.00;;;;;;5029923;28;20230;-59
2021/08/22 06:47:11;;;;;;;2.83;2.35;;;25.00;48.00;;;;;;5030908;28;20206;-60
2021/08/22 06:49:37;;;;;;;2.83;2.63;;;25.00;48.00;;;;;;5029435;28;20300;-59
2021/08/22 06:52:04;;;;;;;2.60;2.40;;;25.00;48.00;;;;;;5030305;28;20225;-59
2021/08/22 06:54:30;;;;;;;2.70;2.50;;;25.00;48.00;;;;;;5029600;28;20436;-59
2021/08/22 06:56:56;;;;;;;2.42;2.22;;;25.00;48.00;;;;;;5030777;28;20203;-59
2021/08/22 06:59:23;;;;;;;3.05;2.55;;;25.00;48.00;;;;;;5029595;28;20237;-59
2021/08/22 07:01:49;;;;;;;4.13;2.50;;;25.00;48.00;;;;;;5030483;28;20209;-59
2021/08/22 07:04:16;;;;;;;3.10;2.65;;;25.00;48.00;;;;;;5029452;28;20313;-59
2021/08/22 07:06:42;;;;;;;2.65;2.38;;;25.00;48.00;;;;;;5034326;28;20212;-59
2021/08/22 07:09:09;;;;;;;2.63;2.42;;;25.10;47.80;;;;;;5034740;28;20221;-56
2021/08/22 07:11:35;;;;;;;2.78;2.58;;;25.10;47.60;;;;;;5036507;28;20296;-55
2021/08/22 07:14:02;;;;;;;2.38;2.17;;;25.10;47.90;;;;;;5027434;28;20800;-50
2021/08/22 07:16:29;;;;;;;2.85;2.53;;;25.10;47.50;;;;;;5030298;28;20283;-58
2021/08/22 07:18:55;;;;;;;5.45;2.55;;;25.10;47.50;;;;;;5027984;28;20722;-58
2021/08/22 07:21:22;;;;;;;3.40;2.80;;;25.10;47.80;;;;;;5039007;28;20585;-58
2021/08/22 07:23:48;;;;;;;2.72;2.53;;;25.10;47.70;;;;;;5030349;28;20585;-57
2021/08/22 07:26:15;;;;;;;3.10;2.80;;;25.10;47.70;;;;;;5028883;28;20238;-59
2021/08/22 07:28:41;;;;;;;3.05;2.75;;;24.90;46.40;;;;;;5026750;28;20604;-58
2021/08/22 07:31:08;;;;;;;4.57;2.70;;;24.30;47.90;;;;;;5029892;28;20211;-55
2021/08/22 07:33:34;;;;;;;3.55;2.55;;;24.20;47.80;;;;;;5029286;28;20313;-63
2021/08/22 07:36:01;;;;;;;2.78;2.45;;;24.00;47.70;;;;;;5049083;28;20214;-60
2021/08/22 07:38:27;;;;;;;3.00;2.70;;;23.70;47.40;;;;;;5029017;28;20688;-60
2021/08/22 07:40:54;;;;;;;4.50;2.80;;;24.10;48.20;;;;;;5027944;28;20699;-58
2021/08/22 07:43:21;;;;;;;3.40;3.10;;;24.40;48.00;;;;;;5035958;28;20552;-58
2021/08/22 07:45:47;;;;;;;3.03;2.65;;;24.60;47.30;;;;;;5030711;28;20592;-58
2021/08/22 07:48:13;;;;;;;3.00;2.58;;;24.70;47.20;;;;;;5030430;28;20213;-58
2021/08/22 07:50:40;;;;;;;3.40;2.70;;;24.80;47.10;;;;;;5029845;28;20206;-58
2021/08/22 07:53:06;;;;;;;4.05;2.90;;;24.90;47.20;;;;;;5035974;28;20210;-58
2021/08/22 07:55:33;;;;;;;5.55;2.97;;;24.90;47.10;;;;;;5050611;28;20201;-58
2021/08/22 07:58:00;;;;;;;3.15;2.85;;;24.90;47.00;;;;;;5022627;28;20549;-58
2021/08/22 08:00:26;;;;;;;3.17;2.70;;;25.00;47.10;;;;;;5029214;28;20571;-58
2021/08/22 08:02:52;;;;;;;3.25;2.88;;;25.00;47.00;;;;;;5028745;28;20538;-58
2021/08/22 08:05:19;;;;;;;3.17;2.70;;;25.00;46.90;;;;;;5029184;28;20627;-58
2021/08/22 08:07:45;;;;;;;2.70;2.38;;;25.00;46.90;;;;;;5028019;28;20569;-58
2021/08/22 08:10:12;;;;;;;3.00;2.70;;;25.10;47.00;;;;;;5027548;28;20554;-58
2021/08/22 08:12:38;;;;;;;2.83;2.45;;;25.10;46.90;;;;;;5028516;28;20522;-54
2021/08/22 08:15:05;;;;;;;3.05;2.25;;;25.10;47.00;;;;;;5034637;28;20225;-62
2021/08/22 08:17:31;;;;;;;2.90;2.70;;;25.20;47.30;;;;;;5047533;28;20218;-72
2021/08/22 08:19:58;;;;;;;2.33;2.13;;;25.20;47.30;;;;;;5040170;28;20230;-64
2021/08/22 08:22:24;;;;;;;4.70;2.60;;;25.20;47.40;;;;;;5031804;28;20213;-60
2021/08/22 08:24:51;;;;;;;3.58;2.20;;;25.30;47.70;;;;;;5032570;28;20221;-59
2021/08/22 08:27:17;;;;;;;2.63;2.20;;;25.30;47.60;;;;;;5032529;28;20206;-63
2021/08/22 08:29:44;;;;;;;3.20;2.25;;;25.30;47.60;;;;;;5028432;28;20301;-62
2021/08/22 08:32:11;;;;;;;3.47;2.45;;;25.30;47.90;;;;;;5031905;28;20331;-63
2021/08/22 08:34:37;;;;;;;3.20;2.20;;;25.30;49.40;;;;;;5032732;28;20231;-61
2021/08/22 08:37:04;;;;;;;2.78;2.20;;;25.40;48.80;;;;;;5034420;28;20285;-59
2021/08/22 08:39:31;;;;;;;2.33;2.13;;;25.40;48.10;;;;;;5027033;28;20260;-55
2021/08/22 08:41:57;;;;;;;2.42;2.22;;;25.30;47.80;;;;;;5039586;28;20206;-61
2021/08/22 08:44:24;;;;;;;3.67;2.20;;;25.30;48.10;;;;;;5030248;28;20218;-58
2021/08/22 08:46:50;;;;;;;1.98;1.80;;;25.30;47.70;;;;;;5032677;28;20216;-59
2021/08/22 08:49:17;;;;;;;2.50;2.30;;;25.30;47.40;;;;;;5052807;28;20212;-60
2021/08/22 08:51:43;;;;;;;3.00;2.30;;;25.30;46.90;;;;;;5034845;28;20237;-61
2021/08/22 08:54:10;;;;;;;3.78;2.45;;;25.30;47.20;;;;;;5032583;28;20244;-60
2021/08/22 08:56:36;;;;;;;2.88;2.50;;;25.30;46.60;;;;;;5027786;28;20559;-53
2021/08/22 08:59:03;;;;;;;4.13;2.47;;;25.30;46.90;;;;;;5027335;28;20297;-54
2021/08/22 09:01:29;;;;;;;3.88;2.42;;;25.20;46.50;;;;;;5023554;28;20300;-49
2021/08/22 09:03:55;;;;;;;3.00;2.20;;;25.20;46.90;;;;;;5033076;28;20219;-51
2021/08/22 09:06:23;;;;;;;2.17;1.90;;;25.20;46.80;;;;;;5032570;28;20404;-52
2021/08/22 09:08:50;;;;;;;2.25;2.05;;;25.20;47.10;;;;;;5031871;28;20217;-50
2021/08/22 09:11:16;;;;;;;2.80;2.10;;;25.20;47.10;;;;;;5031533;28;20206;-49
2021/08/22 09:13:43;;;;;;;3.13;2.08;;;25.20;47.10;;;;;;5032963;28;20228;-49
2021/08/22 09:16:09;;;;;;;3.60;2.15;;;25.20;47.10;;;;;;5032845;28;20281;-51
2021/08/22 09:18:36;;;;;;;2.20;2.00;;;25.20;47.10;;;;;;5032785;28;20194;-48
2021/08/22 09:21:02;;;;;;;2.58;2.20;;;25.20;47.10;;;;;;5032156;28;20299;-48
2021/08/22 09:23:28;;;;;;;3.35;2.38;;;25.20;47.10;;;;;;5032720;28;20233;-50
2021/08/22 09:25:55;;;;;;;2.30;2.10;;;25.20;47.10;;;;;;5031158;28;20226;-50
2021/08/22 09:28:21;;;;;;;1.98;1.77;;;25.20;47.10;;;;;;5032339;28;20267;-47
2021/08/22 09:30:48;;;;;;;2.20;1.98;;;25.20;47.10;;;;;;5019207;28;20209;-49
2021/08/22 09:33:14;;;;;;;2.38;2.17;;;25.20;47.10;;;;;;5014297;28;20231;-52
2021/08/22 09:35:41;;;;;;;2.85;1.85;;;25.20;47.00;;;;;;5015767;28;20206;-51
2021/08/22 09:38:08;;;;;;;1.90;1.80;;;25.30;47.10;;;;;;5032434;28;20241;-51
2021/08/22 09:40:34;;;;;;;4.30;1.90;;;25.30;47.00;;;;;;5028084;28;20198;-45
2021/08/22 09:43:01;;;;;;;2.53;2.13;;;25.30;47.70;;;;;;5030969;28;20891;-59
2021/08/22 09:45:27;;;;;;;3.75;2.05;;;25.30;47.60;;;;;;5042645;28;20559;-58
2021/08/22 09:47:55;;;;;;;3.00;2.20;;;25.30;47.10;;;;;;5031538;28;20230;-57
2021/08/22 09:50:22;;;;;;;2.28;2.00;;;25.40;47.10;;;;;;5027273;28;20209;-58
2021/08/22 09:52:49;;;;;;;3.00;2.00;;;25.40;48.00;;;;;;5027983;28;20218;-52
2021/08/22 09:55:15;;;;;;;3.33;1.88;;;25.40;48.00;;;;;;5029763;28;20345;-50
2021/08/22 09:57:42;;;;;;;3.72;1.88;;;25.40;48.40;;;;;;5031003;28;20198;-50
2021/08/22 10:00:08;;;;;;;3.05;2.00;;;25.40;48.20;;;;;;5028324;28;20306;-51
2021/08/22 10:02:35;;;;;;;1.88;1.73;;;25.40;48.00;;;;;;5031315;28;20698;-48
2021/08/22 10:05:01;;;;;;;1.92;1.60;;;25.40;48.10;;;;;;5045490;28;20705;-50
2021/08/22 10:07:28;;;;;;;2.35;1.80;;;25.40;48.10;;;;;;5039762;28;20610;-49
2021/08/22 10:09:57;;;;;;;2.67;2.35;;;25.40;47.80;;;;;;5031556;28;20198;-53
2021/08/22 10:12:23;;;;;;;2.88;1.95;;;25.40;47.80;;;;;;5028455;28;20198;-51
2021/08/22 10:14:50;;;;;;;3.03;2.00;;;25.40;47.90;;;;;;5032137;28;20206;-49
2021/08/22 10:17:17;;;;;;;2.38;1.80;;;25.40;48.10;;;;;;5024818;28;20194;-51
2021/08/22 10:19:43;;;;;;;2.13;1.92;;;25.40;48.20;;;;;;5027906;28;20210;-51
2021/08/22 10:22:11;;;;;;;2.17;1.90;;;25.40;48.20;;;;;;5026952;28;20203;-49
2021/08/22 10:24:38;;;;;;;2.58;1.75;;;25.40;48.20;;;;;;5030547;28;20265;-49
2021/08/22 10:27:04;;;;;;;2.35;1.88;;;25.40;48.40;;;;;;5027065;28;20922;-58
2021/08/22 10:29:31;;;;;;;2.17;1.95;;;25.40;48.20;;;;;;5030718;28;20655;-58
2021/08/22 10:31:58;;;;;;;2.17;1.92;;;25.40;48.30;;;;;;5034048;28;20208;-60
2021/08/22 10:34:24;;;;;;;3.75;1.80;;;25.50;48.30;;;;;;5034402;28;20226;-59
2021/08/22 10:36:51;;;;;;;3.22;1.73;;;25.50;47.90;;;;;;5028352;28;20214;-61
2021/08/22 10:39:17;;;;;;;2.13;1.92;;;25.50;48.10;;;;;;5031280;28;20399;-60
2021/08/22 10:41:44;;;;;;;2.08;1.77;;;25.50;47.90;;;;;;5035712;28;20275;-59
2021/08/22 10:44:10;;;;;;;3.00;1.88;;;25.50;48.00;;;;;;5030351;28;20225;-61
2021/08/22 10:46:37;;;;;;;2.58;1.98;;;25.50;48.00;;;;;;5031389;28;20230;-58
2021/08/22 10:49:03;;;;;;;2.20;1.75;;;25.50;47.90;;;;;;5031470;28;20202;-56
2021/08/22 10:51:30;;;;;;;3.03;1.80;;;25.50;48.90;;;;;;5030122;28;20202;-50
2021/08/22 10:53:56;;;;;;;1.90;1.60;;;25.50;48.90;;;;;;5031213;28;20236;-55
2021/08/22 10:56:22;;;;;;;2.70;2.08;;;25.50;48.60;;;;;;5030410;28;20214;-52
2021/08/22 10:58:49;;;;;;;3.50;2.20;;;25.50;48.50;;;;;;5031024;28;20253;-54
2021/08/22 11:01:15;;;;;;;2.63;2.00;;;25.50;48.30;;;;;;5028663;28;20357;-54
2021/08/22 11:03:42;;;;;;;3.50;1.98;;;25.40;48.20;;;;;;5043187;28;20225;-56
2021/08/22 11:06:08;;;;;;;2.35;1.85;;;25.40;48.20;;;;;;5022696;28;20237;-54
2021/08/22 11:08:35;;;;;;;3.40;1.83;;;25.40;48.00;;;;;;5031217;28;20198;-48
2021/08/22 11:11:01;;;;;;;2.78;2.10;;;25.50;48.90;;;;;;5028933;28;20206;-48
2021/08/22 11:13:28;;;;;;;3.25;2.05;;;25.50;48.90;;;;;;5030200;28;20218;-53
2021/08/22 11:15:54;;;;;;;3.13;2.08;;;25.50;48.80;;;;;;5027451;28;20202;-53
2021/08/22 11:18:21;;;;;;;2.80;2.10;;;25.50;48.80;;;;;;5029951;28;20706;-55
2021/08/22 11:20:47;;;;;;;3.45;1.88;;;25.50;48.30;;;;;;5028743;28;20225;-53
2021/08/22 11:23:17;;;;;;;4.30;2.20;;;25.50;48.50;;;;;;5028922;28;20222;-54
2021/08/22 11:25:43;;;;;;;3.78;2.15;;;25.50;48.30;;;;;;5028722;28;20238;-53
2021/08/22 11:28:10;;;;;;;4.35;2.33;;;25.50;48.10;;;;;;5025276;28;20191;-53
2021/08/22 11:30:36;;;;;;;2.90;2.40;;;25.50;48.30;;;;;;5021937;28;20208;-54
2021/08/22 11:33:02;;;;;;;3.65;2.35;;;25.50;48.40;;;;;;5029700;28;20317;-53
2021/08/22 11:35:29;;;;;;;3.67;2.10;;;25.50;48.70;;;;;;5029393;28;20207;-53
2021/08/22 11:37:55;;;;;;;4.43;2.60;;;25.50;48.20;;;;;;5029766;28;20202;-54
2021/08/22 11:40:23;;;;;;;5.28;2.22;;;25.40;48.10;;;;;;5038627;28;20296;-53
2021/08/22 11:42:49;;;;;;;3.30;2.25;;;25.40;48.50;;;;;;5028046;28;20288;-55
2021/08/22 11:45:16;;;;;;;5.25;2.15;;;25.40;48.60;;;;;;5028519;28;20202;-55
2021/08/22 11:47:42;;;;;;;3.83;2.10;;;25.40;48.30;;;;;;5029926;28;20250;-51
2021/08/22 11:50:10;;;;;;;2.90;2.08;;;25.40;48.20;;;;;;5030759;28;20206;-54
2021/08/22 11:52:37;;;;;;;2.95;2.22;;;25.40;48.30;;;;;;5033229;28;20325;-53
2021/08/22 11:55:03;;;;;;;3.42;2.08;;;25.40;48.20;;;;;;5032516;28;20202;-54
2021/08/22 11:57:30;;;;;;;2.88;2.47;;;25.40;48.80;;;;;;5033686;28;20708;-54
2021/08/22 11:59:57;;;;;;;4.00;2.33;;;25.40;48.60;;;;;;5033211;28;20652;-53
2021/08/22 12:02:25;;;;;;;3.22;2.08;;;25.40;48.50;;;;;;5034264;28;20624;-52
2021/08/22 12:04:51;;;;;;;4.00;2.10;;;25.40;48.50;;;;;;5033370;28;20217;-52
2021/08/22 12:07:18;;;;;;;3.58;2.10;;;25.40;48.50;;;;;;5027190;28;20245;-54
2021/08/22 12:09:44;;;;;;;4.90;2.65;;;25.40;48.50;;;;;;5028845;28;20208;-54
2021/08/22 12:12:11;;;;;;;2.78;2.20;;;25.40;48.80;;;;;;5034110;28;20233;-53
2021/08/22 12:14:37;;;;;;;3.58;2.22;;;25.50;48.80;;;;;;5029860;28;20726;-54
2021/08/22 12:17:06;;;;;;;2.47;2.25;;;25.40;48.80;;;;;;5032138;28;20195;-53
2021/08/22 12:19:32;;;;;;;5.82;2.58;;;25.50;49.40;;;;;;5032988;28;20207;-53
2021/08/22 12:21:59;;;;;;;2.58;2.20;;;25.50;49.30;;;;;;5033260;28;20212;-53
2021/08/22 12:24:25;;;;;;;3.70;2.40;;;25.50;49.50;;;;;;5031267;28;20206;-57
2021/08/22 12:26:51;;;;;;;3.60;2.42;;;25.40;49.90;;;;;;5030795;28;20222;-50
2021/08/22 12:29:18;;;;;;;3.15;2.30;;;25.40;50.00;;;;;;5032572;28;20202;-54
2021/08/22 12:31:44;;;;;;;3.05;2.45;;;25.40;49.70;;;;;;5032953;28;20205;-52
2021/08/22 12:34:11;;;;;;;3.08;2.17;;;25.40;48.80;;;;;;5019046;28;20208;-55
2021/08/22 12:36:37;;;;;;;3.53;2.22;;;25.40;48.80;;;;;;5033637;28;20207;-54
2021/08/22 12:39:04;;;;;;;3.72;2.42;;;25.40;48.80;;;;;;5029063;28;20711;-55
2021/08/22 12:41:32;;;;;;;3.50;2.20;;;25.40;49.30;;;;;;5035104;28;20607;-55
2021/08/22 12:43:58;;;;;;;3.58;2.63;;;25.40;48.80;;;;;;5029816;28;20262;-56